sensor_id;sensor_type;location;lat;lon;timestamp;pressure;altitude;pressure_sealevel;temperature;humidity
30081;BME280;16902;50.816;12.828;2023-08-31T00:02:21;97001.78;;;12.27;100.00
30081;BME280;16902;50.816;12.828;2023-08-31T00:07:22;97008.88;;;12.14;100.00
30081;BME280;16902;50.816;12.828;2023-08-31T00:12:24;96988.06;;;11.94;100.00
30081;BME280;16902;50.816;12.828;2023-08-31T00:17:27;96976.47;;;11.90;100.00
30081;BME280;16902;50.816;12.828;2023-08-31T00:22:29;96937.16;;;11.78;100.00
30081;BME280;16902;50.816;12.828;2023-08-31T00:27:31;96930.00;;;11.67;100.00
30081;BME280;16902;50.816;12.828;2023-08-31T00:32:33;96957.06;;;11.66;100.00
30081;BME280;16902;50.816;12.828;2023-08-31T00:37:36;96975.69;;;11.82;100.00
30081;BME280;16902;50.816;12.828;2023-08-31T00:42:38;96975.50;;;11.71;100.00
30081;BME280;16902;50.816;12.828;2023-08-31T00:47:40;96986.75;;;11.71;100.00
30081;BME280;16902;50.816;12.828;2023-08-31T00:52:43;96979.31;;;11.75;100.00
30081;BME280;16902;50.816;12.828;2023-08-31T00:57:49;96985.13;;;11.77;100.00
30081;BME280;16902;50.816;12.828;2023-08-31T01:03:20;96975.50;;;11.71;100.00
30081;BME280;16902;50.816;12.828;2023-08-31T01:14:18;96981.34;;;11.66;100.00
30081;BME280;16902;50.816;12.828;2023-08-31T01:24:42;96985.31;;;11.69;100.00
30081;BME280;16902;50.816;12.828;2023-08-31T01:29:45;96985.94;;;11.64;100.00
30081;BME280;16902;50.816;12.828;2023-08-31T01:34:47;96971.75;;;11.53;100.00
30081;BME280;16902;50.816;12.828;2023-08-31T01:39:54;96973.38;;;11.35;100.00
30081;BME280;16902;50.816;12.828;2023-08-31T01:44:58;96965.41;;;11.23;100.00
30081;BME280;16902;50.816;12.828;2023-08-31T01:50:00;96969.63;;;11.17;100.00
30081;BME280;16902;50.816;12.828;2023-08-31T01:55:04;96982.25;;;11.00;100.00
30081;BME280;16902;50.816;12.828;2023-08-31T02:00:09;96996.09;;;11.07;100.00
30081;BME280;16902;50.816;12.828;2023-08-31T02:05:17;97002.88;;;10.95;100.00
30081;BME280;16902;50.816;12.828;2023-08-31T02:10:22;97007.50;;;10.73;100.00
30081;BME280;16902;50.816;12.828;2023-08-31T02:15:24;97021.06;;;10.62;100.00
30081;BME280;16902;50.816;12.828;2023-08-31T02:20:26;97016.88;;;10.68;100.00
30081;BME280;16902;50.816;12.828;2023-08-31T02:25:28;97018.72;;;10.74;100.00
30081;BME280;16902;50.816;12.828;2023-08-31T02:30:30;97025.91;;;10.72;100.00
30081;BME280;16902;50.816;12.828;2023-08-31T02:35:33;97026.28;;;10.62;100.00
30081;BME280;16902;50.816;12.828;2023-08-31T02:40:34;97023.47;;;10.50;100.00
30081;BME280;16902;50.816;12.828;2023-08-31T02:45:36;97036.09;;;10.67;100.00
30081;BME280;16902;50.816;12.828;2023-08-31T02:50:38;97047.56;;;10.79;100.00
30081;BME280;16902;50.816;12.828;2023-08-31T02:55:42;97040.75;;;10.98;100.00
30081;BME280;16902;50.816;12.828;2023-08-31T03:00:44;97045.75;;;11.06;100.00
30081;BME280;16902;50.816;12.828;2023-08-31T03:05:55;97049.78;;;11.09;100.00
30081;BME280;16902;50.816;12.828;2023-08-31T03:10:58;97055.59;;;11.17;100.00
30081;BME280;16902;50.816;12.828;2023-08-31T03:16:00;97054.75;;;11.17;100.00
30081;BME280;16902;50.816;12.828;2023-08-31T03:21:03;97059.38;;;11.15;100.00
30081;BME280;16902;50.816;12.828;2023-08-31T03:26:09;97047.78;;;11.04;100.00
30081;BME280;16902;50.816;12.828;2023-08-31T03:31:11;97047.56;;;11.05;100.00
30081;BME280;16902;50.816;12.828;2023-08-31T03:36:15;97049.16;;;11.00;100.00
30081;BME280;16902;50.816;12.828;2023-08-31T03:41:18;97056.16;;;10.86;100.00
30081;BME280;16902;50.816;12.828;2023-08-31T03:46:20;97062.00;;;10.95;100.00
30081;BME280;16902;50.816;12.828;2023-08-31T03:51:22;97067.59;;;10.98;100.00
30081;BME280;16902;50.816;12.828;2023-08-31T03:56:24;97071.41;;;10.96;100.00
30081;BME280;16902;50.816;12.828;2023-08-31T04:01:26;97074.22;;;10.94;100.00
30081;BME280;16902;50.816;12.828;2023-08-31T04:06:28;97083.78;;;10.87;100.00
30081;BME280;16902;50.816;12.828;2023-08-31T04:11:30;97092.63;;;10.86;100.00
30081;BME280;16902;50.816;12.828;2023-08-31T04:16:32;97097.22;;;10.91;100.00
30081;BME280;16902;50.816;12.828;2023-08-31T04:21:34;97094.03;;;10.89;100.00
30081;BME280;16902;50.816;12.828;2023-08-31T04:26:36;97094.84;;;10.96;100.00
30081;BME280;16902;50.816;12.828;2023-08-31T04:31:38;97101.25;;;11.00;100.00
30081;BME280;16902;50.816;12.828;2023-08-31T04:36:40;97096.84;;;10.94;100.00
30081;BME280;16902;50.816;12.828;2023-08-31T04:41:42;97115.06;;;11.07;100.00
30081;BME280;16902;50.816;12.828;2023-08-31T04:46:44;97117.28;;;11.10;100.00
30081;BME280;16902;50.816;12.828;2023-08-31T04:51:46;97126.75;;;11.18;100.00
30081;BME280;16902;50.816;12.828;2023-08-31T04:56:48;97130.56;;;11.28;100.00
30081;BME280;16902;50.816;12.828;2023-08-31T05:01:50;97133.56;;;11.32;100.00
30081;BME280;16902;50.816;12.828;2023-08-31T05:06:52;97142.00;;;11.47;100.00
30081;BME280;16902;50.816;12.828;2023-08-31T05:11:54;97143.59;;;11.48;100.00
30081;BME280;16902;50.816;12.828;2023-08-31T05:16:56;97143.78;;;11.53;100.00
30081;BME280;16902;50.816;12.828;2023-08-31T05:21:58;97149.41;;;11.64;100.00
30081;BME280;16902;50.816;12.828;2023-08-31T05:26:59;97160.84;;;11.82;100.00
30081;BME280;16902;50.816;12.828;2023-08-31T05:32:01;97160.84;;;11.96;100.00
30081;BME280;16902;50.816;12.828;2023-08-31T05:37:04;97165.88;;;11.91;100.00
30081;BME280;16902;50.816;12.828;2023-08-31T05:42:07;97179.91;;;12.03;100.00
30081;BME280;16902;50.816;12.828;2023-08-31T05:47:09;97182.47;;;12.29;100.00
30081;BME280;16902;50.816;12.828;2023-08-31T05:52:10;97191.91;;;12.30;100.00
30081;BME280;16902;50.816;12.828;2023-08-31T05:57:12;97189.91;;;12.19;100.00
30081;BME280;16902;50.816;12.828;2023-08-31T06:02:14;97199.75;;;12.17;100.00
30081;BME280;16902;50.816;12.828;2023-08-31T06:07:17;97207.19;;;12.20;100.00
30081;BME280;16902;50.816;12.828;2023-08-31T06:12:19;97205.34;;;12.27;100.00
30081;BME280;16902;50.816;12.828;2023-08-31T06:17:21;97212.78;;;12.30;100.00
30081;BME280;16902;50.816;12.828;2023-08-31T06:22:23;97217.41;;;12.28;100.00
30081;BME280;16902;50.816;12.828;2023-08-31T06:27:26;97221.44;;;12.24;100.00
30081;BME280;16902;50.816;12.828;2023-08-31T06:32:28;97226.84;;;12.29;100.00
30081;BME280;16902;50.816;12.828;2023-08-31T06:37:30;97230.03;;;12.31;100.00
30081;BME280;16902;50.816;12.828;2023-08-31T06:42:32;97232.84;;;12.43;100.00
30081;BME280;16902;50.816;12.828;2023-08-31T06:47:34;97230.59;;;12.47;100.00
30081;BME280;16902;50.816;12.828;2023-08-31T06:52:36;97241.25;;;12.58;100.00
30081;BME280;16902;50.816;12.828;2023-08-31T06:57:38;97247.41;;;12.71;100.00
30081;BME280;16902;50.816;12.828;2023-08-31T07:02:40;97241.75;;;12.87;100.00
30081;BME280;16902;50.816;12.828;2023-08-31T07:07:44;97249.28;;;13.22;100.00
30081;BME280;16902;50.816;12.828;2023-08-31T07:12:45;97243.66;;;13.56;100.00
30081;BME280;16902;50.816;12.828;2023-08-31T07:17:47;97260.88;;;13.96;100.00
30081;BME280;16902;50.816;12.828;2023-08-31T07:22:49;97253.16;;;13.76;100.00
30081;BME280;16902;50.816;12.828;2023-08-31T07:27:51;97252.38;;;13.75;100.00
30081;BME280;16902;50.816;12.828;2023-08-31T07:32:54;97251.91;;;13.85;100.00
30081;BME280;16902;50.816;12.828;2023-08-31T07:37:56;97265.88;;;13.72;100.00
30081;BME280;16902;50.816;12.828;2023-08-31T07:42:58;97278.88;;;13.85;100.00
30081;BME280;16902;50.816;12.828;2023-08-31T07:47:59;97282.91;;;13.81;100.00
30081;BME280;16902;50.816;12.828;2023-08-31T07:53:02;97292.66;;;13.99;100.00
30081;BME280;16902;50.816;12.828;2023-08-31T07:58:05;97293.50;;;14.43;100.00
30081;BME280;16902;50.816;12.828;2023-08-31T08:03:07;97292.94;;;14.66;100.00
30081;BME280;16902;50.816;12.828;2023-08-31T08:08:09;97292.19;;;14.59;100.00
30081;BME280;16902;50.816;12.828;2023-08-31T08:13:11;97304.66;;;15.19;100.00
30081;BME280;16902;50.816;12.828;2023-08-31T08:18:14;97311.69;;;15.36;100.00
30081;BME280;16902;50.816;12.828;2023-08-31T08:23:16;97304.72;;;15.60;100.00
30081;BME280;16902;50.816;12.828;2023-08-31T08:28:19;97315.25;;;15.42;100.00
30081;BME280;16902;50.816;12.828;2023-08-31T08:33:21;97317.72;;;15.37;100.00
30081;BME280;16902;50.816;12.828;2023-08-31T08:38:23;97315.38;;;15.47;100.00
30081;BME280;16902;50.816;12.828;2023-08-31T08:43:25;97313.16;;;15.81;100.00
30081;BME280;16902;50.816;12.828;2023-08-31T08:48:32;97317.84;;;16.32;100.00
30081;BME280;16902;50.816;12.828;2023-08-31T08:53:35;97325.28;;;15.93;100.00
30081;BME280;16902;50.816;12.828;2023-08-31T08:58:39;97321.69;;;16.06;100.00
30081;BME280;16902;50.816;12.828;2023-08-31T09:03:42;97343.81;;;15.99;100.00
30081;BME280;16902;50.816;12.828;2023-08-31T09:08:53;97329.75;;;15.93;100.00
30081;BME280;16902;50.816;12.828;2023-08-31T09:13:57;97331.44;;;15.87;100.00
30081;BME280;16902;50.816;12.828;2023-08-31T09:18:59;97336.38;;;15.47;100.00
30081;BME280;16902;50.816;12.828;2023-08-31T09:24:02;97332.41;;;15.26;100.00
30081;BME280;16902;50.816;12.828;2023-08-31T09:29:07;97332.78;;;15.78;100.00
30081;BME280;16902;50.816;12.828;2023-08-31T09:34:09;97332.13;;;16.36;100.00
30081;BME280;16902;50.816;12.828;2023-08-31T09:39:13;97320.59;;;17.08;100.00
30081;BME280;16902;50.816;12.828;2023-08-31T09:44:17;97322.16;;;17.61;100.00
30081;BME280;16902;50.816;12.828;2023-08-31T09:49:20;97314.25;;;17.20;100.00
30081;BME280;16902;50.816;12.828;2023-08-31T09:54:23;97313.47;;;17.48;100.00
30081;BME280;16902;50.816;12.828;2023-08-31T09:59:27;97323.13;;;18.17;100.00
30081;BME280;16902;50.816;12.828;2023-08-31T10:04:31;97320.03;;;18.20;100.00
30081;BME280;16902;50.816;12.828;2023-08-31T10:09:35;97329.09;;;17.38;100.00
30081;BME280;16902;50.816;12.828;2023-08-31T10:14:37;97325.59;;;16.62;100.00
30081;BME280;16902;50.816;12.828;2023-08-31T10:19:39;97324.59;;;16.40;100.00
30081;BME280;16902;50.816;12.828;2023-08-31T10:25:04;97370.63;;;14.97;100.00
30081;BME280;16902;50.816;12.828;2023-08-31T10:35:40;97339.44;;;12.13;100.00
30081;BME280;16902;50.816;12.828;2023-08-31T10:41:21;97326.00;;;12.16;100.00
30081;BME280;16902;50.816;12.828;2023-08-31T10:46:48;97321.44;;;13.23;100.00
30081;BME280;16902;50.816;12.828;2023-08-31T11:02:10;97327.00;;;15.21;100.00
30081;BME280;16902;50.816;12.828;2023-08-31T11:07:17;97316.13;;;16.96;100.00
30081;BME280;16902;50.816;12.828;2023-08-31T11:12:22;97320.97;;;20.23;100.00
30081;BME280;16902;50.816;12.828;2023-08-31T11:17:25;97319.13;;;17.81;100.00
30081;BME280;16902;50.816;12.828;2023-08-31T11:22:31;97328.69;;;16.36;100.00
30081;BME280;16902;50.816;12.828;2023-08-31T11:27:33;97324.88;;;18.95;100.00
30081;BME280;16902;50.816;12.828;2023-08-31T11:32:35;97334.63;;;17.02;100.00
30081;BME280;16902;50.816;12.828;2023-08-31T11:37:37;97351.72;;;14.45;100.00
30081;BME280;16902;50.816;12.828;2023-08-31T11:42:39;97361.41;;;13.36;100.00
30081;BME280;16902;50.816;12.828;2023-08-31T11:47:43;97357.53;;;12.34;100.00
30081;BME280;16902;50.816;12.828;2023-08-31T11:52:46;97347.31;;;12.53;100.00
30081;BME280;16902;50.816;12.828;2023-08-31T11:57:52;97358.19;;;15.29;100.00
30081;BME280;16902;50.816;12.828;2023-08-31T12:03:00;97363.69;;;19.83;100.00
30081;BME280;16902;50.816;12.828;2023-08-31T12:08:03;97351.97;;;21.60;77.25
30081;BME280;16902;50.816;12.828;2023-08-31T12:13:08;97344.34;;;21.78;72.28
30081;BME280;16902;50.816;12.828;2023-08-31T12:18:13;97348.13;;;22.28;68.42
30081;BME280;16902;50.816;12.828;2023-08-31T12:23:15;97346.91;;;21.48;100.00
30081;BME280;16902;50.816;12.828;2023-08-31T12:28:18;97338.50;;;21.66;63.30
30081;BME280;16902;50.816;12.828;2023-08-31T12:33:20;97342.59;;;21.37;76.82
30081;BME280;16902;50.816;12.828;2023-08-31T12:38:23;97335.81;;;18.03;100.00
30081;BME280;16902;50.816;12.828;2023-08-31T12:43:25;97339.56;;;16.86;100.00
30081;BME280;16902;50.816;12.828;2023-08-31T12:48:27;97343.97;;;16.39;100.00
30081;BME280;16902;50.816;12.828;2023-08-31T12:53:29;97347.50;;;20.65;100.00
30081;BME280;16902;50.816;12.828;2023-08-31T12:58:32;97348.59;;;25.80;53.18
30081;BME280;16902;50.816;12.828;2023-08-31T13:03:34;97344.06;;;27.53;48.89
30081;BME280;16902;50.816;12.828;2023-08-31T13:08:36;97360.00;;;28.08;42.24
30081;BME280;16902;50.816;12.828;2023-08-31T13:13:38;97335.75;;;23.94;48.58
30081;BME280;16902;50.816;12.828;2023-08-31T13:18:40;97339.28;;;20.62;56.27
30081;BME280;16902;50.816;12.828;2023-08-31T13:23:42;97335.00;;;23.89;50.22
30081;BME280;16902;50.816;12.828;2023-08-31T13:28:47;97333.31;;;24.71;46.39
30081;BME280;16902;50.816;12.828;2023-08-31T13:33:49;97329.78;;;24.76;42.21
30081;BME280;16902;50.816;12.828;2023-08-31T13:38:50;97332.56;;;25.37;41.82
30081;BME280;16902;50.816;12.828;2023-08-31T13:43:52;97341.22;;;25.29;40.89
30081;BME280;16902;50.816;12.828;2023-08-31T13:48:54;97356.72;;;24.35;43.26
30081;BME280;16902;50.816;12.828;2023-08-31T13:53:56;97349.16;;;23.79;45.62
30081;BME280;16902;50.816;12.828;2023-08-31T13:58:58;97338.56;;;24.76;41.71
30081;BME280;16902;50.816;12.828;2023-08-31T14:04:01;97349.69;;;23.76;42.79
30081;BME280;16902;50.816;12.828;2023-08-31T14:09:05;97351.06;;;22.47;45.45
30081;BME280;16902;50.816;12.828;2023-08-31T14:14:07;97348.97;;;19.92;52.27
30081;BME280;16902;50.816;12.828;2023-08-31T14:19:13;97360.28;;;23.16;46.19
30081;BME280;16902;50.816;12.828;2023-08-31T14:24:14;97351.16;;;21.59;51.01
30081;BME280;16902;50.816;12.828;2023-08-31T14:29:16;97352.94;;;19.67;54.59
30081;BME280;16902;50.816;12.828;2023-08-31T14:34:18;97348.25;;;19.52;61.74
30081;BME280;16902;50.816;12.828;2023-08-31T14:39:20;97347.94;;;23.51;47.21
30081;BME280;16902;50.816;12.828;2023-08-31T14:44:22;97345.13;;;20.69;51.89
30081;BME280;16902;50.816;12.828;2023-08-31T14:49:24;97355.78;;;19.00;73.87
30081;BME280;16902;50.816;12.828;2023-08-31T14:54:26;97348.66;;;20.15;61.95
30081;BME280;16902;50.816;12.828;2023-08-31T14:59:28;97351.66;;;18.54;67.18
30081;BME280;16902;50.816;12.828;2023-08-31T15:04:31;97358.88;;;17.96;79.21
30081;BME280;16902;50.816;12.828;2023-08-31T15:09:33;97362.94;;;17.35;100.00
30081;BME280;16902;50.816;12.828;2023-08-31T15:14:35;97377.72;;;16.65;100.00
30081;BME280;16902;50.816;12.828;2023-08-31T15:19:40;97382.63;;;16.62;100.00
30081;BME280;16902;50.816;12.828;2023-08-31T15:24:41;97389.66;;;16.80;100.00
30081;BME280;16902;50.816;12.828;2023-08-31T15:29:44;97391.16;;;17.75;100.00
30081;BME280;16902;50.816;12.828;2023-08-31T15:34:46;97389.69;;;17.95;100.00
30081;BME280;16902;50.816;12.828;2023-08-31T15:39:51;97390.91;;;18.05;100.00
30081;BME280;16902;50.816;12.828;2023-08-31T15:44:53;97397.66;;;17.72;93.98
30081;BME280;16902;50.816;12.828;2023-08-31T15:49:57;97408.06;;;17.27;100.00
30081;BME280;16902;50.816;12.828;2023-08-31T15:55:01;97416.41;;;17.00;100.00
30081;BME280;16902;50.816;12.828;2023-08-31T16:00:06;97429.31;;;16.90;100.00
30081;BME280;16902;50.816;12.828;2023-08-31T16:05:08;97421.78;;;16.93;100.00
30081;BME280;16902;50.816;12.828;2023-08-31T16:10:10;97425.53;;;16.74;100.00
30081;BME280;16902;50.816;12.828;2023-08-31T16:15:12;97429.59;;;16.58;100.00
30081;BME280;16902;50.816;12.828;2023-08-31T16:20:14;97438.06;;;16.18;100.00
30081;BME280;16902;50.816;12.828;2023-08-31T16:25:16;97431.34;;;15.92;100.00
30081;BME280;16902;50.816;12.828;2023-08-31T16:30:19;97434.91;;;15.80;100.00
30081;BME280;16902;50.816;12.828;2023-08-31T16:35:21;97438.28;;;16.17;100.00
30081;BME280;16902;50.816;12.828;2023-08-31T16:40:24;97436.84;;;16.03;100.00
30081;BME280;16902;50.816;12.828;2023-08-31T16:45:26;97432.38;;;15.73;100.00
30081;BME280;16902;50.816;12.828;2023-08-31T16:50:35;97433.38;;;15.54;100.00
30081;BME280;16902;50.816;12.828;2023-08-31T16:55:38;97447.28;;;15.36;100.00
30081;BME280;16902;50.816;12.828;2023-08-31T17:00:40;97441.03;;;15.37;100.00
30081;BME280;16902;50.816;12.828;2023-08-31T17:05:43;97432.16;;;15.38;100.00
30081;BME280;16902;50.816;12.828;2023-08-31T17:10:45;97442.31;;;15.28;100.00
30081;BME280;16902;50.816;12.828;2023-08-31T17:15:46;97442.63;;;15.20;100.00
30081;BME280;16902;50.816;12.828;2023-08-31T17:20:48;97441.66;;;15.14;100.00
30081;BME280;16902;50.816;12.828;2023-08-31T17:25:50;97445.50;;;15.11;100.00
30081;BME280;16902;50.816;12.828;2023-08-31T17:30:52;97447.56;;;15.09;100.00
30081;BME280;16902;50.816;12.828;2023-08-31T17:35:57;97438.75;;;15.04;100.00
30081;BME280;16902;50.816;12.828;2023-08-31T17:40:59;97446.66;;;14.97;100.00
30081;BME280;16902;50.816;12.828;2023-08-31T17:46:01;97447.19;;;14.81;100.00
30081;BME280;16902;50.816;12.828;2023-08-31T17:51:05;97441.25;;;14.67;100.00
30081;BME280;16902;50.816;12.828;2023-08-31T17:56:07;97441.78;;;14.51;100.00
30081;BME280;16902;50.816;12.828;2023-08-31T18:01:10;97443.81;;;14.42;100.00
30081;BME280;16902;50.816;12.828;2023-08-31T18:06:12;97445.72;;;14.28;100.00
30081;BME280;16902;50.816;12.828;2023-08-31T18:11:14;97451.19;;;14.20;100.00
30081;BME280;16902;50.816;12.828;2023-08-31T18:16:16;97459.53;;;14.04;100.00
30081;BME280;16902;50.816;12.828;2023-08-31T18:21:18;97465.88;;;13.83;100.00
30081;BME280;16902;50.816;12.828;2023-08-31T18:26:20;97477.16;;;13.83;100.00
30081;BME280;16902;50.816;12.828;2023-08-31T18:31:23;97475.78;;;13.74;100.00
30081;BME280;16902;50.816;12.828;2023-08-31T18:36:26;97470.19;;;13.57;100.00
30081;BME280;16902;50.816;12.828;2023-08-31T18:41:28;97480.28;;;13.41;100.00
30081;BME280;16902;50.816;12.828;2023-08-31T18:46:29;97477.47;;;13.35;100.00
30081;BME280;16902;50.816;12.828;2023-08-31T18:51:31;97484.91;;;13.12;100.00
30081;BME280;16902;50.816;12.828;2023-08-31T18:56:35;97482.31;;;13.05;100.00
30081;BME280;16902;50.816;12.828;2023-08-31T19:01:37;97491.34;;;13.09;100.00
30081;BME280;16902;50.816;12.828;2023-08-31T19:06:38;97493.94;;;13.09;100.00
30081;BME280;16902;50.816;12.828;2023-08-31T19:11:40;97490.94;;;12.99;100.00
30081;BME280;16902;50.816;12.828;2023-08-31T19:16:44;97491.16;;;12.84;100.00
30081;BME280;16902;50.816;12.828;2023-08-31T19:21:45;97494.56;;;12.85;100.00
30081;BME280;16902;50.816;12.828;2023-08-31T19:26:47;97505.81;;;12.72;100.00
30081;BME280;16902;50.816;12.828;2023-08-31T19:31:49;97505.56;;;12.47;100.00
30081;BME280;16902;50.816;12.828;2023-08-31T19:36:51;97510.78;;;12.47;100.00
30081;BME280;16902;50.816;12.828;2023-08-31T19:41:57;97523.44;;;12.44;100.00
30081;BME280;16902;50.816;12.828;2023-08-31T19:46:59;97520.84;;;12.50;100.00
30081;BME280;16902;50.816;12.828;2023-08-31T19:52:15;97522.47;;;12.65;100.00
30081;BME280;16902;50.816;12.828;2023-08-31T19:57:17;97516.84;;;12.74;100.00
30081;BME280;16902;50.816;12.828;2023-08-31T20:02:19;97523.50;;;12.83;100.00
30081;BME280;16902;50.816;12.828;2023-08-31T20:07:21;97531.34;;;12.83;100.00
30081;BME280;16902;50.816;12.828;2023-08-31T20:12:23;97530.53;;;12.83;100.00
30081;BME280;16902;50.816;12.828;2023-08-31T20:17:24;97534.75;;;12.91;100.00
30081;BME280;16902;50.816;12.828;2023-08-31T20:22:26;97527.53;;;12.99;100.00
30081;BME280;16902;50.816;12.828;2023-08-31T20:27:28;97526.94;;;12.97;100.00
30081;BME280;16902;50.816;12.828;2023-08-31T20:32:29;97538.97;;;13.05;100.00
30081;BME280;16902;50.816;12.828;2023-08-31T20:37:35;97550.66;;;13.09;100.00
30081;BME280;16902;50.816;12.828;2023-08-31T20:42:37;97550.84;;;12.94;100.00
30081;BME280;16902;50.816;12.828;2023-08-31T20:47:39;97613.69;;;12.66;100.00
30081;BME280;16902;50.816;12.828;2023-08-31T20:52:44;97593.50;;;12.40;100.00
30081;BME280;16902;50.816;12.828;2023-08-31T20:57:46;97614.88;;;12.16;100.00
30081;BME280;16902;50.816;12.828;2023-08-31T21:02:48;97609.25;;;12.12;100.00
30081;BME280;16902;50.816;12.828;2023-08-31T21:07:51;97621.84;;;12.08;100.00
30081;BME280;16902;50.816;12.828;2023-08-31T21:12:53;97626.63;;;11.98;100.00
30081;BME280;16902;50.816;12.828;2023-08-31T21:17:54;97615.16;;;11.93;100.00
30081;BME280;16902;50.816;12.828;2023-08-31T21:22:56;97610.81;;;11.78;100.00
30081;BME280;16902;50.816;12.828;2023-08-31T21:27:58;97601.25;;;11.57;100.00
30081;BME280;16902;50.816;12.828;2023-08-31T21:33:00;97600.59;;;11.49;100.00
30081;BME280;16902;50.816;12.828;2023-08-31T21:38:03;97607.22;;;11.51;100.00
30081;BME280;16902;50.816;12.828;2023-08-31T21:43:05;97597.84;;;11.57;100.00
30081;BME280;16902;50.816;12.828;2023-08-31T21:48:07;97599.88;;;11.62;100.00
30081;BME280;16902;50.816;12.828;2023-08-31T21:53:09;97591.63;;;11.58;100.00
30081;BME280;16902;50.816;12.828;2023-08-31T21:58:11;97597.97;;;11.49;100.00
30081;BME280;16902;50.816;12.828;2023-08-31T22:03:13;97602.06;;;11.58;100.00
30081;BME280;16902;50.816;12.828;2023-08-31T22:08:15;97605.78;;;11.49;100.00
30081;BME280;16902;50.816;12.828;2023-08-31T22:13:17;97608.38;;;11.21;100.00
30081;BME280;16902;50.816;12.828;2023-08-31T22:18:20;97606.84;;;10.84;100.00
30081;BME280;16902;50.816;12.828;2023-08-31T22:23:21;97604.94;;;10.56;100.00
30081;BME280;16902;50.816;12.828;2023-08-31T22:28:23;97607.75;;;10.40;100.00
30081;BME280;16902;50.816;12.828;2023-08-31T22:33:25;97607.47;;;10.49;100.00
30081;BME280;16902;50.816;12.828;2023-08-31T22:38:27;97606.38;;;10.44;100.00
30081;BME280;16902;50.816;12.828;2023-08-31T22:43:29;97603.59;;;10.45;100.00
30081;BME280;16902;50.816;12.828;2023-08-31T22:48:30;97605.66;;;10.50;100.00
30081;BME280;16902;50.816;12.828;2023-08-31T22:53:33;97601.50;;;10.55;100.00
30081;BME280;16902;50.816;12.828;2023-08-31T22:58:34;97599.63;;;10.64;100.00
30081;BME280;16902;50.816;12.828;2023-08-31T23:03:37;97602.28;;;10.71;100.00
30081;BME280;16902;50.816;12.828;2023-08-31T23:08:39;97608.53;;;10.76;100.00
30081;BME280;16902;50.816;12.828;2023-08-31T23:13:41;97607.00;;;10.82;100.00
30081;BME280;16902;50.816;12.828;2023-08-31T23:18:42;97604.22;;;10.84;100.00
30081;BME280;16902;50.816;12.828;2023-08-31T23:23:44;97604.03;;;10.85;100.00
30081;BME280;16902;50.816;12.828;2023-08-31T23:28:46;97609.19;;;10.78;100.00
30081;BME280;16902;50.816;12.828;2023-08-31T23:33:48;97603.03;;;10.65;100.00
30081;BME280;16902;50.816;12.828;2023-08-31T23:38:50;97614.59;;;10.62;100.00
30081;BME280;16902;50.816;12.828;2023-08-31T23:43:52;97603.81;;;10.65;100.00
30081;BME280;16902;50.816;12.828;2023-08-31T23:48:54;97599.44;;;10.66;100.00
30081;BME280;16902;50.816;12.828;2023-08-31T23:53:57;97604.63;;;10.66;100.00
30081;BME280;16902;50.816;12.828;2023-08-31T23:58:59;97611.63;;;10.65;100.00
